Terminal Aerodrome Forecast
Issued by NWS Wilmington, NC

Current Version | Previous Version | Text Only | Print | Product List | Glossary On
Versions: 1 2 3 4 5 6 7 8 9 10 11 12 13 14 15 16
000
FTUS42 KILM 031730 AAB
TAFFLO
TAF AMD
KFLO 031730Z 0317/0418 19008KT P6SM VCTS SCT025CB BKN040 BKN120
      TEMPO 0318/0319 3SM TSRA BKN025CB
     FM040100 16003KT P6SM SCT070 BKN120
     FM040900 08004KT 6SM -RA BKN020 OVC080
     FM041300 04005KT P6SM VCSH BKN040=

USA.gov is the U.S. government's official web portal to all federal, state and local government web resources and services.